Time;durP1;ratioP1;P1;durP2;ratioP2;P2;SDS_P1;SDS_P2;PMS_P1;PMS_P2;Temp;Humidity;BMP_temperature;BMP_pressure;BME280_temperature;BME280_humidity;BME280_pressure;Samples;Min_cycle;Max_cycle;Signal;HPM_P1;HPM_P2
2021/05/18 00:00:01;;;;;;;0.80;0.40;;;;;;;;;;5021706;28;20076;-78
2021/05/18 00:02:27;;;;;;;0.35;0.17;;;;;;;;;;5028394;28;20469;-78
2021/05/18 00:04:54;;;;;;;0.98;0.20;;;;;;;;;;5027045;28;20032;-78
2021/05/18 00:07:22;;;;;;;0.90;0.30;;;;;;;;;;5026950;28;20022;-79
2021/05/18 00:12:34;;;;;;;0.55;0.30;;;;;;;;;;5026293;28;20120;-77
2021/05/18 00:15:00;;;;;;;0.52;0.10;;;;;;;;;;5044660;28;20022;-78
2021/05/18 00:17:28;;;;;;;0.30;0.20;;;;;;;;;;5021681;28;20062;-78
2021/05/18 00:19:54;;;;;;;0.20;0.20;;;;;;;;;;5022557;28;20470;-78
2021/05/18 00:22:20;;;;;;;4.70;0.30;;;;;;;;;;5023067;28;20030;-78
2021/05/18 00:24:46;;;;;;;1.42;0.20;;;;;;;;;;5025272;28;20034;-78
2021/05/18 00:27:13;;;;;;;0.10;0.10;;;;;;;;;;5024087;28;20026;-78
2021/05/18 00:29:39;;;;;;;0.65;0.13;;;;;;;;;;5036979;28;20105;-79
2021/05/18 00:32:05;;;;;;;0.10;0.10;;;;;;;;;;5021565;28;20037;-78
2021/05/18 00:34:31;;;;;;;0.75;0.30;;;;;;;;;;5020023;28;20030;-78
2021/05/18 00:36:57;;;;;;;2.63;0.30;;;;;;;;;;5039837;28;20026;-79
2021/05/18 00:39:23;;;;;;;0.40;0.15;;;;;;;;;;5023960;28;20030;-80
2021/05/18 00:41:50;;;;;;;0.68;0.10;;;;;;;;;;5026444;28;20033;-79
2021/05/18 00:44:16;;;;;;;0.20;0.15;;;;;;;;;;5032674;28;20021;-80
2021/05/18 00:46:42;;;;;;;3.30;0.20;;;;;;;;;;5022781;28;20057;-80
2021/05/18 00:49:08;;;;;;;0.45;0.10;;;;;;;;;;5036429;28;20032;-79
2021/05/18 00:51:35;;;;;;;0.30;0.20;;;;;;;;;;5020776;28;20089;-80
2021/05/18 00:54:05;;;;;;;0.10;0.10;;;;;;;;;;5022722;28;20060;-80
2021/05/18 00:59:03;;;;;;;;;;;;;;;;;;5025093;28;20040;-80
2021/05/18 01:01:29;;;;;;;2.08;0.10;;;;;;;;;;5025298;28;19941;-80
2021/05/18 01:03:56;;;;;;;0.52;0.10;;;;;;;;;;5025063;28;20030;-80
2021/05/18 01:06:30;;;;;;;0.45;0.20;;;;;;;;;;5027298;28;20024;-78
2021/05/18 01:08:56;;;;;;;1.73;0.00;;;;;;;;;;5039086;28;20037;-78
2021/05/18 01:11:24;;;;;;;0.00;0.00;;;;;;;;;;5030977;28;20030;-79
2021/05/18 01:13:56;;;;;;;0.10;0.10;;;;;;;;;;5036552;28;20513;-80
2021/05/18 01:16:22;;;;;;;0.00;0.00;;;;;;;;;;5024251;28;20029;-80
2021/05/18 01:18:48;;;;;;;0.73;0.13;;;;;;;;;;5028268;28;20033;-79
2021/05/18 01:21:15;;;;;;;0.22;0.10;;;;;;;;;;5034450;28;20022;-79
2021/05/18 01:23:41;;;;;;;0.13;0.08;;;;;;;;;;5028730;28;20051;-79
2021/05/18 01:26:08;;;;;;;0.00;0.00;;;;;;;;;;5035393;28;20022;-79
2021/05/18 01:28:35;;;;;;;0.10;0.10;;;;;;;;;;5020301;28;20030;-79
2021/05/18 01:31:01;;;;;;;0.20;0.20;;;;;;;;;;5021802;28;20030;-79
2021/05/18 01:33:28;;;;;;;0.10;0.10;;;;;;;;;;5021481;28;20034;-78
2021/05/18 01:36:00;;;;;;;0.00;0.00;;;;;;;;;;5036074;28;20045;-77
2021/05/18 01:38:35;;;;;;;0.13;0.10;;;;;;;;;;5038196;28;20037;-79
2021/05/18 01:43:53;;;;;;;1.40;0.05;;;;;;;;;;5019881;28;20104;-79
2021/05/18 01:46:20;;;;;;;0.08;0.00;;;;;;;;;;5003711;28;20018;-79
2021/05/18 01:48:51;;;;;;;0.45;0.10;;;;;;;;;;5019782;28;20030;-79
2021/05/18 01:51:17;;;;;;;0.20;0.10;;;;;;;;;;5023453;28;20025;-78
2021/05/18 01:53:43;;;;;;;0.10;0.10;;;;;;;;;;5021986;28;20100;-79
2021/05/18 01:58:36;;;;;;;0.20;0.10;;;;;;;;;;5023816;28;20034;-79
2021/05/18 02:01:02;;;;;;;0.00;0.00;;;;;;;;;;5023024;28;20036;-79
2021/05/18 02:03:29;;;;;;;0.43;0.10;;;;;;;;;;5021882;28;20049;-79
2021/05/18 02:05:56;;;;;;;0.77;0.08;;;;;;;;;;5022901;28;20029;-79
2021/05/18 02:08:23;;;;;;;2.47;0.10;;;;;;;;;;5022665;28;20076;-79
2021/05/18 02:10:49;;;;;;;0.68;0.10;;;;;;;;;;5022699;28;20112;-79
2021/05/18 02:13:16;;;;;;;0.05;0.00;;;;;;;;;;5033907;28;20029;-79
2021/05/18 02:19:05;;;;;;;0.35;0.10;;;;;;;;;;4996361;28;20087;-79
2021/05/18 02:26:42;;;;;;;0.43;0.10;;;;;;;;;;5022058;28;20041;-80
2021/05/18 02:29:08;;;;;;;0.10;0.10;;;;;;;;;;5022118;28;20026;-79
2021/05/18 02:31:34;;;;;;;0.88;0.10;;;;;;;;;;5023471;28;20033;-78
2021/05/18 02:34:00;;;;;;;0.52;0.20;;;;;;;;;;5022626;28;20033;-81
2021/05/18 02:36:27;;;;;;;0.10;0.10;;;;;;;;;;5022872;28;20090;-78
2021/05/18 02:38:53;;;;;;;3.70;0.22;;;;;;;;;;5022395;28;20041;-79
2021/05/18 02:41:20;;;;;;;0.32;0.10;;;;;;;;;;5037279;28;20065;-78
2021/05/18 02:44:04;;;;;;;1.15;0.10;;;;;;;;;;5035943;28;20080;-79
2021/05/18 02:49:16;;;;;;;0.10;0.10;;;;;;;;;;5021477;28;20451;-79
2021/05/18 02:51:47;;;;;;;0.57;0.10;;;;;;;;;;5021329;28;20061;-79
2021/05/18 02:54:15;;;;;;;0.15;0.10;;;;;;;;;;5021793;28;20026;-79
2021/05/18 02:59:17;;;;;;;0.20;0.20;;;;;;;;;;5021036;28;20026;-79
2021/05/18 03:01:44;;;;;;;0.35;0.15;;;;;;;;;;5021425;28;20026;-79
2021/05/18 03:04:11;;;;;;;0.15;0.10;;;;;;;;;;5023193;28;20133;-79
2021/05/18 03:06:37;;;;;;;0.32;0.10;;;;;;;;;;5037650;28;20022;-79
2021/05/18 03:09:09;;;;;;;0.20;0.20;;;;;;;;;;5022870;28;20026;-80
2021/05/18 03:11:35;;;;;;;0.00;0.00;;;;;;;;;;5025301;28;20022;-78
2021/05/18 03:14:02;;;;;;;0.90;0.30;;;;;;;;;;5042971;28;20026;-79
2021/05/18 03:16:28;;;;;;;0.10;0.00;;;;;;;;;;5028714;28;20038;-79
2021/05/18 03:18:54;;;;;;;1.15;0.30;;;;;;;;;;5025420;28;20033;-79
2021/05/18 03:21:20;;;;;;;0.10;0.10;;;;;;;;;;5023742;28;20041;-80
2021/05/18 03:23:46;;;;;;;0.20;0.20;;;;;;;;;;5023420;28;20025;-80
2021/05/18 03:26:12;;;;;;;0.73;0.20;;;;;;;;;;5020829;28;20032;-80
2021/05/18 03:28:38;;;;;;;0.28;0.10;;;;;;;;;;5020701;28;20041;-80
2021/05/18 03:36:36;;;;;;;0.32;0.15;;;;;;;;;;5025332;28;20056;-78
2021/05/18 03:39:03;;;;;;;0.10;0.10;;;;;;;;;;5022455;28;20025;-79
2021/05/18 03:41:32;;;;;;;0.52;0.20;;;;;;;;;;5022757;28;20124;-81
2021/05/18 03:44:12;;;;;;;1.65;0.22;;;;;;;;;;5038935;28;20014;-79
2021/05/18 04:18:56;;;;;;;0.22;0.20;;;;;;;;;;5026612;28;20049;-78
2021/05/18 05:01:23;;;;;;;0.20;0.20;;;;;;;;;;5061640;28;20088;-77
2021/05/18 05:09:09;;;;;;;0.73;0.13;;;;;;;;;;5039478;28;20033;-78
2021/05/18 05:14:26;;;;;;;0.63;0.13;;;;;;;;;;5052763;28;20167;-77
2021/05/18 05:16:52;;;;;;;0.10;0.10;;;;;;;;;;5041290;28;20040;-77
2021/05/18 05:19:20;;;;;;;0.40;0.30;;;;;;;;;;5040512;28;20382;-78
2021/05/18 05:21:46;;;;;;;0.17;0.17;;;;;;;;;;5043481;28;20052;-80
2021/05/18 05:24:13;;;;;;;0.10;0.10;;;;;;;;;;5056497;28;20110;-81
2021/05/18 05:26:40;;;;;;;0.10;0.10;;;;;;;;;;5063000;28;20075;-83
2021/05/18 05:29:07;;;;;;;1.20;0.35;;;;;;;;;;5061323;28;20043;-81
2021/05/18 05:31:33;;;;;;;0.50;0.20;;;;;;;;;;5061588;28;20028;-82
2021/05/18 05:33:59;;;;;;;0.73;0.20;;;;;;;;;;5056455;28;20029;-83
2021/05/18 05:36:25;;;;;;;0.47;0.20;;;;;;;;;;5042458;28;20029;-83
2021/05/18 05:38:52;;;;;;;0.10;0.10;;;;;;;;;;5044243;28;20112;-83
2021/05/18 05:41:18;;;;;;;0.32;0.17;;;;;;;;;;5060729;28;20033;-82
2021/05/18 05:43:44;;;;;;;5.55;3.83;;;;;;;;;;5070052;28;20557;-82
2021/05/18 05:46:10;;;;;;;3.80;3.22;;;;;;;;;;5043102;28;20026;-81
2021/05/18 05:48:37;;;;;;;4.55;2.95;;;;;;;;;;5042132;28;20033;-80
2021/05/18 05:51:04;;;;;;;36.13;15.82;;;;;;;;;;5039940;28;20100;-81
2021/05/18 05:53:31;;;;;;;4.05;1.63;;;;;;;;;;5053247;28;20466;-81
2021/05/18 05:55:57;;;;;;;2.67;0.70;;;;;;;;;;5056146;28;20040;-81
2021/05/18 05:58:23;;;;;;;0.88;0.88;;;;;;;;;;5057212;28;20025;-82
2021/05/18 06:00:49;;;;;;;5.70;5.20;;;;;;;;;;5062851;28;20032;-82
2021/05/18 06:03:15;;;;;;;1.77;1.67;;;;;;;;;;5064966;28;20066;-80
2021/05/18 06:05:41;;;;;;;0.68;0.63;;;;;;;;;;5063983;28;20029;-80
2021/05/18 06:08:07;;;;;;;0.55;0.20;;;;;;;;;;5063538;28;20044;-80
2021/05/18 06:10:40;;;;;;;0.40;0.40;;;;;;;;;;5067374;28;20074;-79
2021/05/18 06:45:59;;;;;;;1.98;0.17;;;;;;;;;;5052290;28;20101;-81
2021/05/18 06:48:25;;;;;;;1.55;0.30;;;;;;;;;;5041005;28;20087;-79
2021/05/18 06:50:52;;;;;;;0.80;0.63;;;;;;;;;;5058876;28;20025;-80
2021/05/18 06:53:18;;;;;;;0.73;0.38;;;;;;;;;;5061425;28;20029;-79
2021/05/18 06:55:44;;;;;;;0.93;0.43;;;;;;;;;;5060938;28;20036;-80
2021/05/18 06:58:14;;;;;;;0.28;0.28;;;;;;;;;;5064775;28;20021;-78
2021/05/18 07:00:42;;;;;;;2.17;0.30;;;;;;;;;;5048875;28;20029;-80
2021/05/18 07:03:14;;;;;;;3.70;0.50;;;;;;;;;;5066411;28;20024;-80
2021/05/18 07:05:54;;;;;;;0.90;0.20;;;;;;;;;;5045064;28;20367;-76
2021/05/18 07:10:49;;;;;;;0.55;0.32;;;;;;;;;;5057212;28;20026;-78
2021/05/18 07:13:16;;;;;;;1.58;0.30;;;;;;;;;;5068437;28;20456;-77
2021/05/18 07:15:42;;;;;;;1.23;0.22;;;;;;;;;;5043721;28;20025;-77
2021/05/18 07:18:09;;;;;;;2.60;0.50;;;;;;;;;;5041210;28;20037;-77
2021/05/18 07:20:35;;;;;;;0.30;0.20;;;;;;;;;;5041020;28;20033;-77
2021/05/18 07:23:07;;;;;;;1.35;0.70;;;;;;;;;;5042812;28;20071;-76
2021/05/18 07:25:33;;;;;;;0.28;0.28;;;;;;;;;;5041739;28;20033;-76
2021/05/18 07:28:00;;;;;;;0.20;0.15;;;;;;;;;;5044799;28;20032;-79
2021/05/18 07:30:27;;;;;;;0.60;0.13;;;;;;;;;;5042751;28;20022;-78
2021/05/18 07:32:53;;;;;;;0.40;0.30;;;;;;;;;;5043065;28;20085;-79
2021/05/18 07:35:19;;;;;;;1.98;0.10;;;;;;;;;;5041889;28;20029;-78
2021/05/18 07:37:46;;;;;;;3.92;0.60;;;;;;;;;;5051455;28;20035;-79
2021/05/18 07:40:12;;;;;;;0.63;0.10;;;;;;;;;;5061455;28;20100;-79
2021/05/18 07:42:38;;;;;;;1.55;0.50;;;;;;;;;;5069896;28;20032;-76
2021/05/18 07:45:06;;;;;;;0.85;0.30;;;;;;;;;;5062620;28;20083;-77
2021/05/18 07:47:35;;;;;;;0.90;0.30;;;;;;;;;;5063232;28;20025;-77
2021/05/18 07:50:05;;;;;;;0.60;0.35;;;;;;;;;;5069112;28;20029;-77
2021/05/18 08:06:16;;;;;;;1.17;0.28;;;;;;;;;;5041554;28;20124;-78
2021/05/18 08:08:43;;;;;;;2.58;0.50;;;;;;;;;;5041001;28;20105;-78
2021/05/18 08:11:09;;;;;;;0.22;0.22;;;;;;;;;;5058927;28;20027;-79
2021/05/18 08:13:35;;;;;;;0.63;0.30;;;;;;;;;;5067286;28;20031;-78
2021/05/18 08:21:38;;;;;;;0.50;0.17;;;;;;;;;;5043010;28;20033;-77
2021/05/18 08:53:03;;;;;;;0.50;0.50;;;;;;;;;;5060343;28;20128;-78
2021/05/18 10:35:35;;;;;;;1.00;0.28;;;;;;;;;;5042416;28;20126;-80
2021/05/18 10:38:03;;;;;;;0.57;0.20;;;;;;;;;;5041250;28;20436;-80
2021/05/18 10:40:32;;;;;;;0.20;0.20;;;;;;;;;;5067069;22;20064;-82
2021/05/18 10:43:11;;;;;;;2.30;0.20;;;;;;;;;;5076497;28;20507;-82
2021/05/18 10:45:53;;;;;;;0.75;0.35;;;;;;;;;;5081113;28;20025;-82
2021/05/18 10:48:42;;;;;;;0.30;0.30;;;;;;;;;;5085711;28;20104;-83
2021/05/18 10:51:25;;;;;;;1.10;0.22;;;;;;;;;;5064511;28;20040;-83
2021/05/18 10:54:19;;;;;;;0.20;0.20;;;;;;;;;;5075218;28;20119;-83
2021/05/18 10:56:54;;;;;;;0.25;0.20;;;;;;;;;;5066017;28;20393;-83
2021/05/18 10:59:39;;;;;;;1.20;0.30;;;;;;;;;;5067943;28;20029;-81
2021/05/18 11:02:05;;;;;;;0.40;0.40;;;;;;;;;;5087757;28;20031;-82
2021/05/18 11:04:36;;;;;;;0.25;0.25;;;;;;;;;;5078503;28;20029;-85
2021/05/18 11:07:03;;;;;;;0.43;0.10;;;;;;;;;;5066960;28;20048;-83
2021/05/18 11:09:30;;;;;;;0.45;0.20;;;;;;;;;;5074644;28;20020;-82
2021/05/18 11:12:00;;;;;;;0.40;0.20;;;;;;;;;;5087549;28;20081;-82
2021/05/18 11:14:45;;;;;;;1.75;0.20;;;;;;;;;;5081895;28;20150;-83
2021/05/18 11:17:14;;;;;;;0.30;0.25;;;;;;;;;;5085688;28;20027;-81
2021/05/18 11:19:59;;;;;;;0.65;0.32;;;;;;;;;;5085058;28;20035;-83
2021/05/18 11:25:10;;;;;;;0.55;0.30;;;;;;;;;;5070617;28;20034;-83
2021/05/18 11:27:37;;;;;;;0.88;0.20;;;;;;;;;;5084236;28;20076;-81
2021/05/18 11:30:04;;;;;;;0.52;0.30;;;;;;;;;;5083609;28;20025;-82
2021/05/18 11:32:30;;;;;;;0.85;0.00;;;;;;;;;;5084289;28;20036;-83
2021/05/18 11:35:02;;;;;;;0.85;0.30;;;;;;;;;;5084702;28;20035;-84
2021/05/18 11:37:30;;;;;;;0.22;0.22;;;;;;;;;;5082938;28;20020;-84
2021/05/18 11:40:12;;;;;;;0.22;0.10;;;;;;;;;;5075590;28;20030;-83
2021/05/18 11:42:38;;;;;;;;;;;;;;;;;;5085337;28;20032;-84
2021/05/18 11:45:15;;;;;;;0.47;0.20;;;;;;;;;;5084583;28;19939;-83
2021/05/18 11:47:41;;;;;;;0.25;0.15;;;;;;;;;;5067501;28;20068;-84
2021/05/18 11:50:16;;;;;;;0.30;0.22;;;;;;;;;;5064777;28;20029;-83
2021/05/18 11:52:42;;;;;;;1.02;0.22;;;;;;;;;;5068489;28;20033;-82
2021/05/18 11:55:17;;;;;;;4.13;0.35;;;;;;;;;;5064512;28;20029;-81
2021/05/18 11:57:44;;;;;;;0.38;0.20;;;;;;;;;;5074498;28;20059;-81
2021/05/18 12:00:22;;;;;;;0.45;0.20;;;;;;;;;;5064968;28;20063;-82
2021/05/18 12:02:48;;;;;;;2.13;0.73;;;;;;;;;;5076466;28;20036;-83
2021/05/18 12:05:14;;;;;;;2.97;0.98;;;;;;;;;;5082792;28;20576;-83
2021/05/18 12:07:40;;;;;;;13.60;9.18;;;;;;;;;;5080130;28;20111;-82
2021/05/18 12:10:07;;;;;;;1.75;1.60;;;;;;;;;;5073561;28;20036;-83
2021/05/18 12:12:37;;;;;;;0.80;0.80;;;;;;;;;;5085475;28;20040;-82
2021/05/18 12:15:07;;;;;;;1.48;1.10;;;;;;;;;;5078829;28;20445;-84
2021/05/18 12:17:35;;;;;;;1.75;1.65;;;;;;;;;;5068407;28;20009;-81
2021/05/18 12:20:01;;;;;;;1.15;0.40;;;;;;;;;;5087046;28;20479;-82
2021/05/18 12:22:28;;;;;;;1.13;1.00;;;;;;;;;;5087676;28;20024;-83
2021/05/18 12:24:57;;;;;;;0.80;0.80;;;;;;;;;;5085550;28;20112;-83
2021/05/18 12:27:23;;;;;;;1.70;1.60;;;;;;;;;;5086264;28;20021;-82
2021/05/18 12:29:52;;;;;;;3.63;2.13;;;;;;;;;;5073905;28;20021;-83
2021/05/18 12:32:28;;;;;;;0.73;0.73;;;;;;;;;;5085840;28;20028;-82
2021/05/18 12:34:55;;;;;;;0.30;0.30;;;;;;;;;;5084903;28;20074;-83
2021/05/18 12:37:34;;;;;;;0.45;0.40;;;;;;;;;;5088329;28;20092;-82
2021/05/18 12:40:02;;;;;;;0.50;0.50;;;;;;;;;;5070784;28;20047;-83
2021/05/18 12:42:28;;;;;;;2.05;0.73;;;;;;;;;;5075476;28;20060;-83
2021/05/18 12:44:59;;;;;;;0.17;0.17;;;;;;;;;;5073557;28;20044;-83
2021/05/18 12:47:29;;;;;;;0.20;0.20;;;;;;;;;;5068471;28;20021;-83
2021/05/18 12:49:56;;;;;;;0.63;0.40;;;;;;;;;;5068180;28;20017;-83
2021/05/18 12:52:22;;;;;;;1.90;0.40;;;;;;;;;;5067988;28;20025;-83
2021/05/18 12:54:49;;;;;;;1.00;0.30;;;;;;;;;;5067409;28;20033;-84
2021/05/18 12:57:16;;;;;;;0.30;0.30;;;;;;;;;;5073406;28;20025;-83
2021/05/18 13:00:11;;;;;;;1.55;0.75;;;;;;;;;;5086483;28;20029;-83
2021/05/18 13:02:39;;;;;;;0.45;0.20;;;;;;;;;;5086425;28;20049;-82
2021/05/18 13:05:11;;;;;;;0.30;0.15;;;;;;;;;;5087576;28;20433;-82
2021/05/18 13:07:38;;;;;;;10.10;5.55;;;;;;;;;;5071578;28;20021;-82
2021/05/18 13:10:17;;;;;;;6.35;3.95;;;;;;;;;;5069559;28;20477;-84
2021/05/18 13:12:43;;;;;;;1.10;1.00;;;;;;;;;;5082168;28;20024;-83
2021/05/18 13:15:14;;;;;;;1.33;1.00;;;;;;;;;;5087253;28;20032;-84
2021/05/18 13:17:59;;;;;;;1.65;1.25;;;;;;;;;;5085728;28;20039;-84
2021/05/18 13:20:34;;;;;;;1.85;1.40;;;;;;;;;;5085437;28;20077;-83
2021/05/18 13:23:03;;;;;;;2.00;1.73;;;;;;;;;;5075643;28;20025;-84
2021/05/18 13:28:14;;;;;;;2.33;1.73;;;;;;;;;;5072771;28;20097;-84
2021/05/18 13:30:40;;;;;;;3.40;2.13;;;;;;;;;;5083356;28;20024;-83
2021/05/18 13:33:07;;;;;;;2.67;1.90;;;;;;;;;;5063636;28;20028;-84
2021/05/18 13:35:34;;;;;;;1.05;1.00;;;;;;;;;;5063885;28;20017;-83
2021/05/18 13:38:00;;;;;;;1.38;0.57;;;;;;;;;;5063512;28;20388;-84
2021/05/18 13:40:27;;;;;;;2.05;0.40;;;;;;;;;;5080252;28;20029;-84
2021/05/18 13:42:53;;;;;;;0.60;0.60;;;;;;;;;;5083851;28;20017;-83
2021/05/18 13:45:21;;;;;;;2.38;0.65;;;;;;;;;;5067485;28;20025;-83
2021/05/18 13:47:48;;;;;;;1.38;0.40;;;;;;;;;;5064634;28;20029;-83
2021/05/18 13:50:14;;;;;;;0.32;0.30;;;;;;;;;;5060745;28;20370;-84
2021/05/18 13:52:40;;;;;;;1.38;0.60;;;;;;;;;;5066206;28;20522;-83
2021/05/18 13:55:08;;;;;;;3.75;0.43;;;;;;;;;;5079817;28;20108;-84
2021/05/18 13:57:34;;;;;;;2.15;0.52;;;;;;;;;;5080296;28;20035;-82
2021/05/18 14:00:00;;;;;;;1.95;0.40;;;;;;;;;;5084073;28;20024;-82
2021/05/18 14:02:26;;;;;;;0.40;0.40;;;;;;;;;;5084567;28;20089;-83
2021/05/18 14:04:53;;;;;;;0.57;0.40;;;;;;;;;;5071238;28;20025;-83
2021/05/18 14:10:25;;;;;;;0.30;0.30;;;;;;;;;;5066172;28;20049;-83
2021/05/18 14:12:51;;;;;;;2.15;1.30;;;;;;;;;;5081934;28;20069;-84
2021/05/18 14:15:17;;;;;;;22.80;11.85;;;;;;;;;;5065032;28;20044;-84
2021/05/18 14:17:43;;;;;;;25.73;13.75;;;;;;;;;;5063655;28;20032;-83
2021/05/18 14:20:09;;;;;;;8.27;5.35;;;;;;;;;;5082386;28;20025;-84
2021/05/18 14:22:36;;;;;;;2.85;1.17;;;;;;;;;;5091743;28;20029;-83
2021/05/18 14:25:05;;;;;;;0.55;0.50;;;;;;;;;;5086710;28;20027;-83
2021/05/18 14:27:38;;;;;;;1.10;0.93;;;;;;;;;;5094708;28;20028;-83
2021/05/18 14:30:05;;;;;;;1.77;1.00;;;;;;;;;;5089222;28;20028;-83
2021/05/18 14:32:31;;;;;;;1.08;0.98;;;;;;;;;;5084343;28;20029;-82
2021/05/18 14:34:57;;;;;;;1.63;0.70;;;;;;;;;;5063806;28;20033;-82
2021/05/18 14:37:23;;;;;;;2.92;0.65;;;;;;;;;;5084147;28;20028;-82
2021/05/18 14:45:02;;;;;;;1.05;0.57;;;;;;;;;;5084841;28;20092;-83
2021/05/18 14:47:36;;;;;;;3.25;0.68;;;;;;;;;;5068077;28;20024;-83
2021/05/18 14:55:32;;;;;;;0.38;0.25;;;;;;;;;;5079760;28;20475;-84
2021/05/18 14:57:58;;;;;;;0.17;0.10;;;;;;;;;;5082320;28;20029;-84
2021/05/18 15:00:25;;;;;;;0.55;0.30;;;;;;;;;;5083122;28;20028;-84
2021/05/18 15:02:51;;;;;;;0.60;0.30;;;;;;;;;;5084550;28;20106;-83
2021/05/18 15:05:18;;;;;;;1.67;0.80;;;;;;;;;;5083975;28;20028;-84
2021/05/18 15:07:44;;;;;;;0.68;0.10;;;;;;;;;;5084251;28;20021;-84
2021/05/18 15:10:11;;;;;;;0.55;0.30;;;;;;;;;;5083726;28;20426;-84
2021/05/18 15:12:37;;;;;;;1.40;0.20;;;;;;;;;;5085647;28;20058;-84
2021/05/18 15:15:04;;;;;;;0.30;0.30;;;;;;;;;;5082929;28;20461;-83
2021/05/18 15:17:30;;;;;;;0.73;0.30;;;;;;;;;;5086890;28;20047;-82
2021/05/18 15:19:59;;;;;;;0.17;0.17;;;;;;;;;;5086841;28;20032;-83
2021/05/18 15:22:25;;;;;;;0.55;0.10;;;;;;;;;;5088814;28;20013;-82
2021/05/18 15:24:51;;;;;;;0.70;0.32;;;;;;;;;;5086387;28;20082;-83
2021/05/18 15:27:17;;;;;;;0.22;0.22;;;;;;;;;;5083443;28;20030;-82
2021/05/18 15:29:43;;;;;;;0.20;0.20;;;;;;;;;;5089260;28;20392;-82
2021/05/18 15:32:10;;;;;;;0.60;0.20;;;;;;;;;;5083511;28;20048;-83
2021/05/18 15:34:36;;;;;;;0.20;0.10;;;;;;;;;;5073495;28;20092;-81
2021/05/18 15:37:02;;;;;;;1.17;0.20;;;;;;;;;;5094328;28;20051;-81
2021/05/18 15:39:28;;;;;;;0.20;0.20;;;;;;;;;;5095618;28;20024;-81
2021/05/18 15:41:55;;;;;;;0.32;0.17;;;;;;;;;;5094592;28;20048;-82
2021/05/18 15:44:21;;;;;;;0.20;0.20;;;;;;;;;;5079879;28;20033;-81
2021/05/18 15:46:47;;;;;;;0.30;0.20;;;;;;;;;;5082247;28;20040;-81
2021/05/18 15:49:13;;;;;;;0.10;0.10;;;;;;;;;;5076022;28;20048;-82
2021/05/18 15:51:39;;;;;;;0.43;0.10;;;;;;;;;;5073662;28;20043;-81
2021/05/18 15:54:06;;;;;;;0.20;0.20;;;;;;;;;;5083833;28;20020;-82
2021/05/18 15:56:34;;;;;;;0.25;0.13;;;;;;;;;;5095238;28;20016;-83
2021/05/18 15:59:00;;;;;;;1.38;0.50;;;;;;;;;;5094535;28;20012;-82
2021/05/18 16:01:26;;;;;;;1.65;0.50;;;;;;;;;;5090779;28;20024;-82
2021/05/18 16:03:52;;;;;;;0.68;0.25;;;;;;;;;;5085463;28;20036;-83
2021/05/18 16:06:20;;;;;;;1.42;0.28;;;;;;;;;;5061599;28;20453;-83
2021/05/18 16:11:12;;;;;;;0.30;0.20;;;;;;;;;;5064152;28;20029;-83
2021/05/18 16:13:39;;;;;;;0.20;0.20;;;;;;;;;;5088107;28;20033;-82
2021/05/18 16:16:07;;;;;;;1.67;0.43;;;;;;;;;;5091403;28;20013;-84
2021/05/18 16:18:34;;;;;;;0.38;0.13;;;;;;;;;;5081295;28;20021;-83
2021/05/18 16:21:00;;;;;;;0.10;0.10;;;;;;;;;;5080421;28;20040;-82
2021/05/18 16:23:27;;;;;;;0.82;0.30;;;;;;;;;;5081680;28;20059;-83
2021/05/18 16:25:56;;;;;;;0.55;0.38;;;;;;;;;;5086602;28;20020;-83
2021/05/18 16:28:23;;;;;;;0.20;0.20;;;;;;;;;;5084983;28;20137;-83
2021/05/18 16:30:49;;;;;;;1.08;0.20;;;;;;;;;;5085065;28;20036;-83
2021/05/18 16:33:16;;;;;;;0.77;0.40;;;;;;;;;;5077619;28;20029;-83
2021/05/18 16:35:42;;;;;;;0.43;0.20;;;;;;;;;;5068655;28;20031;-83
2021/05/18 16:38:08;;;;;;;0.30;0.30;;;;;;;;;;5068219;28;20056;-82
2021/05/18 16:40:35;;;;;;;0.30;0.30;;;;;;;;;;5091828;22;20045;-80
2021/05/18 16:43:01;;;;;;;0.45;0.10;;;;;;;;;;5066397;28;20051;-79
2021/05/18 16:45:27;;;;;;;0.40;0.20;;;;;;;;;;5084925;28;20024;-79
2021/05/18 16:47:53;;;;;;;0.93;0.30;;;;;;;;;;5080452;28;20033;-80
2021/05/18 16:50:20;;;;;;;0.98;0.40;;;;;;;;;;5083026;28;20120;-78
2021/05/18 16:52:46;;;;;;;1.25;0.30;;;;;;;;;;5080309;28;20017;-79
2021/05/18 16:55:13;;;;;;;0.47;0.20;;;;;;;;;;5081351;28;20105;-80
2021/05/18 16:57:39;;;;;;;0.50;0.40;;;;;;;;;;5081104;28;20040;-78
2021/05/18 17:00:07;;;;;;;0.88;0.68;;;;;;;;;;5087103;28;20020;-80
2021/05/18 17:02:34;;;;;;;0.45;0.38;;;;;;;;;;5068332;28;20044;-80
2021/05/18 17:05:00;;;;;;;0.20;0.20;;;;;;;;;;5065457;28;20037;-80
2021/05/18 17:07:27;;;;;;;0.63;0.40;;;;;;;;;;5076635;28;20024;-80
2021/05/18 17:09:53;;;;;;;0.70;0.50;;;;;;;;;;5065868;28;20106;-79
2021/05/18 17:12:20;;;;;;;0.30;0.30;;;;;;;;;;5062677;28;20514;-79
2021/05/18 17:14:51;;;;;;;0.10;0.10;;;;;;;;;;5062005;28;20078;-80
2021/05/18 17:17:17;;;;;;;1.05;0.30;;;;;;;;;;5060154;28;20024;-79
2021/05/18 17:19:44;;;;;;;0.50;0.30;;;;;;;;;;5060702;28;20044;-79
2021/05/18 17:22:11;;;;;;;0.35;0.30;;;;;;;;;;5062459;28;20020;-80
2021/05/18 17:24:37;;;;;;;0.20;0.20;;;;;;;;;;5064129;28;20029;-81
2021/05/18 17:27:04;;;;;;;0.93;0.17;;;;;;;;;;5061636;28;20040;-80
2021/05/18 17:29:31;;;;;;;1.17;0.20;;;;;;;;;;5062355;28;20031;-79
2021/05/18 17:31:57;;;;;;;0.30;0.30;;;;;;;;;;5066131;28;20017;-79
2021/05/18 17:34:23;;;;;;;4.78;0.40;;;;;;;;;;5064768;28;20017;-80
2021/05/18 17:36:51;;;;;;;1.10;0.38;;;;;;;;;;5067510;28;20048;-78
2021/05/18 17:39:17;;;;;;;0.10;0.10;;;;;;;;;;5067807;28;20028;-80
2021/05/18 17:41:43;;;;;;;2.65;0.57;;;;;;;;;;5069498;28;20489;-79
2021/05/18 17:44:10;;;;;;;1.27;0.38;;;;;;;;;;5070870;28;20093;-80
2021/05/18 17:46:36;;;;;;;0.80;0.30;;;;;;;;;;5069891;28;20075;-79
2021/05/18 17:49:03;;;;;;;1.60;0.40;;;;;;;;;;5065854;28;20079;-79
2021/05/18 17:51:33;;;;;;;0.98;0.40;;;;;;;;;;5069902;28;20044;-79
2021/05/18 17:53:59;;;;;;;0.47;0.20;;;;;;;;;;5067357;28;20087;-79
2021/05/18 17:56:25;;;;;;;0.20;0.20;;;;;;;;;;5073172;28;20021;-78
2021/05/18 17:58:51;;;;;;;0.47;0.22;;;;;;;;;;5076176;28;20021;-79
2021/05/18 18:01:17;;;;;;;0.30;0.20;;;;;;;;;;5067826;28;20053;-78
2021/05/18 18:03:43;;;;;;;0.30;0.20;;;;;;;;;;5082591;28;20032;-79
2021/05/18 18:06:09;;;;;;;0.57;0.40;;;;;;;;;;5078505;28;20028;-79
2021/05/18 18:08:40;;;;;;;0.30;0.20;;;;;;;;;;5078515;28;20047;-78
2021/05/18 18:11:06;;;;;;;0.20;0.20;;;;;;;;;;5077448;28;20072;-78
2021/05/18 18:13:33;;;;;;;0.25;0.25;;;;;;;;;;5075689;28;20045;-78
2021/05/18 18:16:04;;;;;;;0.80;0.20;;;;;;;;;;5074686;28;20060;-77
2021/05/18 18:18:30;;;;;;;0.57;0.38;;;;;;;;;;5061925;28;20021;-78
2021/05/18 18:20:56;;;;;;;0.28;0.28;;;;;;;;;;5071237;28;20024;-77
2021/05/18 18:23:23;;;;;;;2.08;0.38;;;;;;;;;;5060864;28;20024;-78
2021/05/18 18:25:49;;;;;;;1.35;0.40;;;;;;;;;;5071961;28;20311;-77
2021/05/18 18:28:19;;;;;;;1.45;0.20;;;;;;;;;;5061989;28;20017;-77
2021/05/18 18:30:45;;;;;;;1.20;0.75;;;;;;;;;;5058988;28;20025;-78
2021/05/18 18:33:12;;;;;;;1.75;0.40;;;;;;;;;;5059540;28;20025;-78
2021/05/18 18:35:38;;;;;;;0.63;0.30;;;;;;;;;;5058350;28;20025;-78
2021/05/18 18:38:09;;;;;;;0.20;0.20;;;;;;;;;;5059595;28;20017;-79
2021/05/18 18:40:35;;;;;;;0.40;0.30;;;;;;;;;;5075195;28;20016;-77
2021/05/18 18:43:01;;;;;;;0.30;0.30;;;;;;;;;;5095210;28;20088;-78
2021/05/18 18:45:27;;;;;;;0.55;0.32;;;;;;;;;;5078247;28;20032;-77
2021/05/18 18:47:54;;;;;;;1.40;0.38;;;;;;;;;;5059914;28;20028;-78
2021/05/18 18:50:25;;;;;;;0.40;0.40;;;;;;;;;;5042195;28;20044;-78
2021/05/18 18:52:58;;;;;;;0.40;0.35;;;;;;;;;;5066709;28;20039;-77
2021/05/18 18:55:25;;;;;;;1.15;0.40;;;;;;;;;;5066854;28;20029;-77
2021/05/18 18:57:52;;;;;;;0.70;0.38;;;;;;;;;;5068415;28;20025;-78
2021/05/18 19:00:20;;;;;;;0.75;0.40;;;;;;;;;;5067271;28;20048;-77
2021/05/18 19:02:51;;;;;;;0.20;0.20;;;;;;;;;;5066778;28;20077;-78
2021/05/18 19:08:25;;;;;;;1.13;0.47;;;;;;;;;;5082480;28;20084;-78
2021/05/18 19:13:30;;;;;;;2.65;0.60;;;;;;;;;;5079500;28;20521;-78
2021/05/18 19:15:56;;;;;;;0.28;0.28;;;;;;;;;;5065207;28;20036;-78
2021/05/18 19:18:22;;;;;;;0.77;0.40;;;;;;;;;;5058624;28;20033;-79
2021/05/18 19:20:48;;;;;;;0.40;0.40;;;;;;;;;;5065839;28;20032;-78
2021/05/18 19:23:14;;;;;;;1.30;0.90;;;;;;;;;;5055643;28;20021;-77
2021/05/18 19:25:41;;;;;;;1.48;0.63;;;;;;;;;;5056246;28;20025;-79
2021/05/18 19:28:10;;;;;;;1.40;0.98;;;;;;;;;;5070041;28;20033;-77
2021/05/18 19:30:36;;;;;;;1.05;0.43;;;;;;;;;;5076448;28;20396;-77
2021/05/18 19:33:03;;;;;;;0.55;0.55;;;;;;;;;;5074327;28;20090;-77
2021/05/18 19:35:41;;;;;;;0.68;0.60;;;;;;;;;;5063418;28;20028;-78
2021/05/18 19:49:06;;;;;;;1.48;0.60;;;;;;;;;;5058719;28;20035;-78
2021/05/18 19:51:34;;;;;;;1.38;0.52;;;;;;;;;;5057692;28;20044;-78
2021/05/18 19:54:00;;;;;;;1.15;0.70;;;;;;;;;;5057153;28;20500;-78
2021/05/18 19:56:33;;;;;;;0.60;0.40;;;;;;;;;;5057456;28;20052;-78
2021/05/18 20:15:35;;;;;;;0.52;0.52;;;;;;;;;;5077807;28;20029;-77
2021/05/18 20:19:23;;;;;;;0.70;0.70;;;;;;;;;;5078187;28;20098;-77
2021/05/18 20:20:48;;;;;;;0.73;0.50;;;;;;;;;;5075002;28;20392;-77
2021/05/18 20:23:14;;;;;;;2.53;1.00;;;;;;;;;;5076591;28;20025;-77
2021/05/18 20:25:40;;;;;;;0.82;0.60;;;;;;;;;;5074069;28;20028;-77
2021/05/18 20:28:06;;;;;;;1.13;0.73;;;;;;;;;;5075576;28;20392;-78
2021/05/18 20:30:32;;;;;;;1.05;0.88;;;;;;;;;;5061554;28;20029;-78
2021/05/18 20:33:00;;;;;;;1.10;0.93;;;;;;;;;;5055161;28;20029;-78
2021/05/18 20:40:37;;;;;;;1.20;0.90;;;;;;;;;;5070612;28;20040;-79